Time;durP1;ratioP1;P1;durP2;ratioP2;P2;SDS_P1;SDS_P2;PMS_P1;PMS_P2;Temp;Humidity;BMP_temperature;BMP_pressure;BME280_temperature;BME280_humidity;BME280_pressure;Samples;Min_cycle;Max_cycle;Signal;HPM_P1;HPM_P2
2021/09/30 00:01:12;;;;;;;1.13;0.73;;;11.00;99.90;;;;;;4956946;28;20180;-58
2021/09/30 00:03:38;;;;;;;0.43;0.43;;;11.10;99.90;;;;;;4956107;28;20546;-60
2021/09/30 00:06:03;;;;;;;0.30;0.20;;;11.00;99.90;;;;;;4956468;28;20431;-60
2021/09/30 00:08:29;;;;;;;0.50;0.50;;;11.00;99.90;;;;;;4956293;28;20223;-58
2021/09/30 00:10:59;;;;;;;0.30;0.30;;;11.00;99.90;;;;;;4954438;28;20692;-60
2021/09/30 00:40:39;;;;;;;0.30;0.25;;;10.90;99.90;;;;;;4955791;29;20183;-60
2021/09/30 00:45:55;;;;;;;0.50;0.43;;;11.00;99.90;;;;;;4955813;28;20192;-60
2021/09/30 00:51:05;;;;;;;0.47;0.47;;;11.00;99.90;;;;;;4955715;28;20184;-61
2021/09/30 00:56:08;;;;;;;0.93;0.60;;;11.00;99.90;;;;;;4955694;28;20215;-60
2021/09/30 01:32:06;;;;;;;0.80;0.80;;;11.20;99.90;;;;;;4960908;28;20513;-60
2021/09/30 01:47:00;;;;;;;0.38;0.30;;;11.10;99.90;;;;;;4958939;28;20494;-60
2021/09/30 02:19:57;;;;;;;0.32;0.30;;;11.30;99.90;;;;;;4958651;29;20231;-60
2021/09/30 02:22:55;;;;;;;0.50;0.35;;;11.30;99.90;;;;;;4959126;29;20183;-61
2021/09/30 02:39:10;;;;;;;0.30;0.20;;;11.10;99.90;;;;;;4958117;29;20244;-58
2021/09/30 02:39:53;;;;;;;1.15;0.40;;;11.10;99.90;;;;;;4957918;28;20195;-58
2021/09/30 02:58:47;;;;;;;0.30;0.20;;;11.10;99.90;;;;;;4957509;29;20681;-58
2021/09/30 03:01:17;;;;;;;0.50;0.50;;;11.00;99.90;;;;;;4957589;28;20188;-58
2021/09/30 03:03:43;;;;;;;0.40;0.38;;;11.00;99.90;;;;;;4957723;28;20188;-58
2021/09/30 03:06:09;;;;;;;0.30;0.20;;;11.00;99.90;;;;;;4957649;28;20576;-59
2021/09/30 03:08:42;;;;;;;0.30;0.20;;;11.10;99.90;;;;;;4957369;28;20267;-60
2021/09/30 03:11:08;;;;;;;2.28;1.38;;;11.10;99.90;;;;;;4957471;28;20460;-60
2021/09/30 03:13:35;;;;;;;18.85;1.63;;;11.10;99.90;;;;;;4956408;28;20212;-60
2021/09/30 03:16:07;;;;;;;0.40;0.30;;;11.00;99.90;;;;;;4957429;28;20258;-60
2021/09/30 03:18:50;;;;;;;0.40;0.30;;;11.10;99.90;;;;;;4956217;29;20180;-60
2021/09/30 03:23:46;;;;;;;0.30;0.20;;;11.00;99.90;;;;;;4957372;28;20195;-59
2021/09/30 03:26:13;;;;;;;2.28;0.65;;;11.00;99.90;;;;;;4956758;28;20193;-58
2021/09/30 03:28:40;;;;;;;0.30;0.28;;;11.00;99.90;;;;;;4957275;28;20246;-58
2021/09/30 03:31:06;;;;;;;1.77;0.40;;;11.00;99.90;;;;;;4957074;28;20192;-58
2021/09/30 03:33:33;;;;;;;2.88;1.05;;;11.00;99.90;;;;;;4956849;28;20183;-58
2021/09/30 03:35:58;;;;;;;0.30;0.30;;;10.90;99.90;;;;;;4956888;28;20210;-58
2021/09/30 03:38:24;;;;;;;4.03;0.70;;;10.90;99.90;;;;;;4956661;28;20200;-58
2021/09/30 03:40:50;;;;;;;0.50;0.50;;;10.90;99.90;;;;;;4956843;28;20207;-58
2021/09/30 03:43:15;;;;;;;0.30;0.10;;;10.80;99.90;;;;;;4956868;28;20288;-58
2021/09/30 03:45:41;;;;;;;1.80;0.80;;;10.90;99.90;;;;;;4955517;28;20438;-58
2021/09/30 03:48:08;;;;;;;0.63;0.30;;;10.90;99.90;;;;;;4956505;28;20622;-58
2021/09/30 03:56:29;;;;;;;0.40;0.28;;;10.90;99.90;;;;;;4939497;29;20192;-58
2021/09/30 03:59:19;;;;;;;0.30;0.20;;;11.00;99.90;;;;;;4950487;28;20223;-58
2021/09/30 04:01:51;;;;;;;0.93;0.85;;;11.00;99.90;;;;;;4954319;29;20180;-58
2021/09/30 04:04:17;;;;;;;0.30;0.20;;;10.90;99.90;;;;;;4955071;28;20512;-58
2021/09/30 04:06:42;;;;;;;0.50;0.50;;;11.00;99.90;;;;;;4955960;28;20199;-58
2021/09/30 04:09:09;;;;;;;0.30;0.30;;;10.90;99.90;;;;;;4956204;29;20191;-58
2021/09/30 04:11:35;;;;;;;0.20;0.20;;;10.90;99.90;;;;;;4956269;29;20222;-59
2021/09/30 04:14:00;;;;;;;5.30;0.50;;;10.90;99.90;;;;;;4956213;28;20184;-59
2021/09/30 04:16:27;;;;;;;0.30;0.20;;;10.90;99.90;;;;;;4956231;29;20199;-59
2021/09/30 04:18:53;;;;;;;0.25;0.20;;;10.90;99.90;;;;;;4955896;29;20626;-59
2021/09/30 04:21:18;;;;;;;0.30;0.20;;;10.90;99.90;;;;;;4956153;29;20615;-58
2021/09/30 04:23:44;;;;;;;0.40;0.33;;;10.90;99.90;;;;;;4956091;28;20243;-61
2021/09/30 04:26:10;;;;;;;0.20;0.20;;;10.90;99.90;;;;;;4954986;29;20275;-61
2021/09/30 04:28:36;;;;;;;0.30;0.20;;;10.90;99.90;;;;;;4955928;28;20638;-61
2021/09/30 04:31:01;;;;;;;0.30;0.20;;;10.80;99.90;;;;;;4956144;28;20559;-59
2021/09/30 04:33:27;;;;;;;0.40;0.20;;;10.80;99.90;;;;;;4956173;29;20618;-59
2021/09/30 04:35:52;;;;;;;0.30;0.10;;;10.80;99.90;;;;;;4956095;29;20187;-61
2021/09/30 04:38:18;;;;;;;1.33;1.23;;;10.80;99.90;;;;;;4956047;28;20231;-61
2021/09/30 04:40:44;;;;;;;0.27;0.20;;;10.80;99.90;;;;;;4955953;29;20180;-61
2021/09/30 04:43:09;;;;;;;0.30;0.20;;;10.70;99.90;;;;;;4955797;28;20184;-61
2021/09/30 04:45:35;;;;;;;1.27;0.60;;;10.70;99.90;;;;;;4955974;29;20669;-61
2021/09/30 04:48:00;;;;;;;0.70;0.40;;;10.70;99.90;;;;;;4955642;29;20188;-61
2021/09/30 04:50:26;;;;;;;7.83;2.33;;;10.70;99.90;;;;;;4954682;29;20192;-59
2021/09/30 04:52:53;;;;;;;6.83;0.87;;;10.70;99.90;;;;;;4955628;29;20671;-61
2021/09/30 04:55:19;;;;;;;0.30;0.20;;;10.70;99.90;;;;;;4955608;28;20173;-60
2021/09/30 04:57:44;;;;;;;0.30;0.20;;;10.70;99.90;;;;;;4954977;28;20335;-61
2021/09/30 05:00:11;;;;;;;0.30;0.20;;;10.60;99.90;;;;;;4955559;28;20184;-61
2021/09/30 05:02:36;;;;;;;0.30;0.20;;;10.60;99.90;;;;;;4955501;28;20184;-61
2021/09/30 05:05:03;;;;;;;0.30;0.20;;;10.60;99.90;;;;;;4955656;29;20180;-61
2021/09/30 05:07:28;;;;;;;0.30;0.30;;;10.50;99.90;;;;;;4955509;29;20179;-61
2021/09/30 05:09:54;;;;;;;3.27;1.23;;;10.50;99.90;;;;;;4955441;28;20625;-61
2021/09/30 05:12:21;;;;;;;0.30;0.30;;;10.50;99.90;;;;;;4955580;29;20278;-59
2021/09/30 05:14:48;;;;;;;0.30;0.10;;;10.50;99.90;;;;;;4955648;28;20184;-60
2021/09/30 05:17:13;;;;;;;0.30;0.28;;;10.50;99.90;;;;;;4956050;29;20203;-60
2021/09/30 05:19:39;;;;;;;0.30;0.20;;;10.50;99.90;;;;;;4955253;28;20614;-60
2021/09/30 05:22:04;;;;;;;0.30;0.20;;;10.50;99.90;;;;;;4955561;29;20533;-59
2021/09/30 05:24:30;;;;;;;1.03;0.47;;;10.50;99.90;;;;;;4955400;29;20650;-59
2021/09/30 05:26:56;;;;;;;0.60;0.40;;;10.50;99.90;;;;;;4955110;28;20191;-60
2021/09/30 05:29:21;;;;;;;0.30;0.23;;;10.50;99.90;;;;;;4957200;28;20183;-60
2021/09/30 05:31:47;;;;;;;0.30;0.30;;;10.50;99.90;;;;;;4955133;29;20270;-60
2021/09/30 05:34:14;;;;;;;3.50;0.50;;;10.50;99.90;;;;;;4954163;29;20184;-60
2021/09/30 05:36:39;;;;;;;1.08;0.80;;;10.50;99.90;;;;;;4954976;29;20172;-60
2021/09/30 05:39:05;;;;;;;0.47;0.30;;;10.50;99.90;;;;;;4955444;29;20504;-59
2021/09/30 05:41:32;;;;;;;3.90;1.17;;;10.50;99.90;;;;;;4956389;29;20178;-59
2021/09/30 05:44:05;;;;;;;0.60;0.40;;;10.50;99.90;;;;;;4955579;29;20651;-59
2021/09/30 05:46:35;;;;;;;0.52;0.38;;;10.50;99.90;;;;;;4955064;28;20192;-60
2021/09/30 05:49:01;;;;;;;0.82;0.30;;;10.50;99.90;;;;;;4955050;29;20652;-60
2021/09/30 05:51:26;;;;;;;1.03;0.43;;;10.50;99.90;;;;;;4953924;29;20263;-60
2021/09/30 05:53:52;;;;;;;0.30;0.20;;;10.40;99.90;;;;;;4953781;29;20184;-59
2021/09/30 05:56:18;;;;;;;0.40;0.30;;;10.50;99.90;;;;;;4954700;28;20263;-60
2021/09/30 05:58:44;;;;;;;0.30;0.20;;;10.40;99.90;;;;;;4953503;29;20238;-59
2021/09/30 06:01:13;;;;;;;1.30;1.17;;;10.30;99.90;;;;;;4954733;29;20180;-59
2021/09/30 06:14:24;;;;;;;2.35;1.23;;;10.40;99.90;;;;;;4958703;28;20676;-59
2021/09/30 06:16:51;;;;;;;0.20;0.20;;;10.40;99.90;;;;;;4958191;29;20195;-59
2021/09/30 06:19:20;;;;;;;0.40;0.30;;;10.40;99.90;;;;;;4958209;28;20267;-59
2021/09/30 06:21:51;;;;;;;0.20;0.20;;;10.40;99.90;;;;;;4958363;29;20196;-59
2021/09/30 06:24:18;;;;;;;16.05;1.77;;;10.50;99.90;;;;;;4958523;28;20263;-59
2021/09/30 06:26:44;;;;;;;0.85;0.68;;;10.60;99.90;;;;;;4958202;28;20562;-61
2021/09/30 06:29:10;;;;;;;0.60;0.32;;;10.60;99.90;;;;;;4957351;28;20347;-68
2021/09/30 06:31:35;;;;;;;4.33;0.50;;;10.50;99.90;;;;;;4957752;28;20295;-67
2021/09/30 06:34:02;;;;;;;1.40;1.30;;;10.50;99.90;;;;;;4957649;29;20424;-66
2021/09/30 06:36:28;;;;;;;1.85;0.30;;;10.50;99.90;;;;;;4957898;28;20180;-62
2021/09/30 06:38:53;;;;;;;0.30;0.30;;;10.60;99.90;;;;;;4957666;28;20199;-62
2021/09/30 06:41:19;;;;;;;0.50;0.47;;;10.70;99.90;;;;;;4957773;29;20434;-62
2021/09/30 06:43:44;;;;;;;3.03;0.50;;;10.70;99.90;;;;;;4957857;29;20199;-69
2021/09/30 06:46:10;;;;;;;0.50;0.40;;;10.80;99.90;;;;;;4957756;29;20184;-62
2021/09/30 06:48:35;;;;;;;0.27;0.17;;;11.00;99.90;;;;;;4956687;28;20188;-68
2021/09/30 06:51:01;;;;;;;1.07;1.00;;;11.00;99.90;;;;;;4957456;28;20219;-69
2021/09/30 06:53:27;;;;;;;2.20;0.50;;;11.00;99.90;;;;;;4958549;28;20189;-61
2021/09/30 06:55:55;;;;;;;0.43;0.30;;;11.10;99.90;;;;;;4958019;28;20179;-63
2021/09/30 06:58:24;;;;;;;4.32;0.85;;;11.00;99.90;;;;;;4957452;28;20177;-63
2021/09/30 07:00:49;;;;;;;0.30;0.30;;;11.20;99.90;;;;;;4957621;28;20606;-61
2021/09/30 07:03:15;;;;;;;0.60;0.40;;;11.30;99.90;;;;;;4957666;28;20199;-63
2021/09/30 07:05:41;;;;;;;7.87;1.60;;;11.40;99.90;;;;;;4957263;28;20184;-67
2021/09/30 07:08:07;;;;;;;0.83;0.57;;;11.40;98.00;;;;;;4957339;28;20184;-65
2021/09/30 07:10:32;;;;;;;0.30;0.20;;;11.50;60.00;;;;;;4955709;29;20191;-61
2021/09/30 07:12:58;;;;;;;0.40;0.30;;;11.70;27.80;;;;;;4956910;28;20555;-60
2021/09/30 07:15:24;;;;;;;0.50;0.40;;;11.80;1.00;;;;;;4956659;29;20196;-66
2021/09/30 07:17:49;;;;;;;1.27;0.67;;;12.00;1.00;;;;;;4957283;28;20188;-65
2021/09/30 07:20:15;;;;;;;0.50;0.20;;;12.00;1.00;;;;;;4956009;28;20276;-66
2021/09/30 07:22:41;;;;;;;0.30;0.20;;;12.00;1.00;;;;;;4956720;28;20271;-66
2021/09/30 07:25:07;;;;;;;0.30;0.20;;;12.20;1.00;;;;;;4954265;29;20180;-65
2021/09/30 07:27:34;;;;;;;0.68;0.68;;;12.10;1.00;;;;;;4956863;28;20200;-65
2021/09/30 07:29:59;;;;;;;0.30;0.20;;;12.10;1.00;;;;;;4955892;29;20188;-65
2021/09/30 07:32:25;;;;;;;1.03;1.03;;;12.00;1.00;;;;;;4956874;29;20528;-65
2021/09/30 07:34:51;;;;;;;0.60;0.30;;;12.00;1.00;;;;;;4956490;29;20188;-65
2021/09/30 07:37:17;;;;;;;2.87;0.43;;;12.00;1.00;;;;;;4956276;28;20447;-65
2021/09/30 07:39:43;;;;;;;2.15;0.32;;;12.10;1.00;;;;;;4956043;28;20215;-67
2021/09/30 07:42:09;;;;;;;1.70;0.40;;;12.10;1.00;;;;;;4956643;29;20262;-64
2021/09/30 07:44:36;;;;;;;0.30;0.20;;;12.00;1.00;;;;;;4957014;28;20262;-62
2021/09/30 07:47:03;;;;;;;2.22;0.47;;;11.90;1.00;;;;;;4955647;28;20626;-66
2021/09/30 07:49:29;;;;;;;0.73;0.63;;;11.80;1.00;;;;;;4955104;28;20198;-66
2021/09/30 07:51:54;;;;;;;1.07;0.50;;;11.80;1.00;;;;;;4956320;29;20825;-66
2021/09/30 07:54:20;;;;;;;5.40;1.80;;;11.80;1.00;;;;;;4956264;28;20451;-65
2021/09/30 07:56:46;;;;;;;0.37;0.27;;;11.80;1.00;;;;;;4956540;28;20535;-67
2021/09/30 07:59:11;;;;;;;3.50;0.40;;;11.70;1.00;;;;;;4956196;29;20180;-68
2021/09/30 08:01:37;;;;;;;0.30;0.20;;;11.60;1.00;;;;;;4955752;28;20188;-62
2021/09/30 08:04:03;;;;;;;0.30;0.17;;;11.60;1.00;;;;;;4956452;29;20188;-68
2021/09/30 08:06:30;;;;;;;0.30;0.20;;;11.60;1.00;;;;;;4956500;29;20199;-66
2021/09/30 08:08:56;;;;;;;0.30;0.20;;;11.70;1.00;;;;;;4956359;29;20610;-66
2021/09/30 08:11:23;;;;;;;0.30;0.22;;;11.90;1.00;;;;;;4955172;29;20195;-69
2021/09/30 08:13:49;;;;;;;3.05;1.20;;;12.10;1.00;;;;;;4955233;29;20187;-71
2021/09/30 08:16:18;;;;;;;0.40;0.38;;;12.30;1.00;;;;;;4954147;28;20199;-70
2021/09/30 08:18:43;;;;;;;0.40;0.20;;;12.30;1.00;;;;;;4956870;28;20184;-70
2021/09/30 08:21:12;;;;;;;0.30;0.20;;;12.40;1.00;;;;;;4955959;28;20251;-70
2021/09/30 08:23:38;;;;;;;0.30;0.20;;;12.60;1.00;;;;;;4955763;28;20203;-66
2021/09/30 08:26:04;;;;;;;0.80;0.65;;;12.80;1.00;;;;;;4955314;28;20296;-66
2021/09/30 08:28:29;;;;;;;0.30;0.20;;;12.80;1.00;;;;;;4954351;29;20549;-65
2021/09/30 08:30:55;;;;;;;2.87;0.50;;;13.00;1.00;;;;;;4955432;28;20200;-65
2021/09/30 08:33:24;;;;;;;0.40;0.30;;;12.90;99.90;;;;;;4956197;28;20223;-67
2021/09/30 08:35:50;;;;;;;1.48;0.47;;;13.00;1.00;;;;;;4955812;28;20593;-68
2021/09/30 08:38:16;;;;;;;0.80;0.43;;;13.10;1.00;;;;;;4955773;28;20176;-68
2021/09/30 08:40:42;;;;;;;0.30;0.20;;;13.30;99.90;;;;;;4955525;28;20722;-66
2021/09/30 08:43:08;;;;;;;0.30;0.20;;;13.40;99.90;;;;;;4955678;28;20192;-66
2021/09/30 08:45:34;;;;;;;0.40;0.30;;;13.40;99.90;;;;;;4956201;28;20194;-69
2021/09/30 08:48:06;;;;;;;0.40;0.30;;;13.40;99.90;;;;;;4954539;29;20180;-64
2021/09/30 08:50:41;;;;;;;0.40;0.20;;;13.50;99.90;;;;;;4956591;28;20538;-64
2021/09/30 08:53:09;;;;;;;0.52;0.52;;;13.50;99.90;;;;;;4955550;28;20306;-64
2021/09/30 08:55:35;;;;;;;0.40;0.22;;;13.50;99.90;;;;;;4954880;28;20528;-68
2021/09/30 08:58:03;;;;;;;0.30;0.10;;;13.70;99.90;;;;;;4955617;29;20184;-66
2021/09/30 09:00:30;;;;;;;0.30;0.20;;;13.90;99.90;;;;;;4955662;28;20191;-66
2021/09/30 09:02:56;;;;;;;0.40;0.30;;;14.10;67.80;;;;;;4954977;28;20218;-66
2021/09/30 09:05:23;;;;;;;0.30;0.20;;;14.10;1.00;;;;;;4955869;28;20506;-68
2021/09/30 09:08:00;;;;;;;0.50;0.38;;;14.00;1.00;;;;;;4955297;28;20439;-67
2021/09/30 09:10:30;;;;;;;0.40;0.30;;;14.30;39.90;;;;;;4955262;28;20215;-68
2021/09/30 09:13:09;;;;;;;0.40;0.20;;;14.20;1.00;;;;;;4954428;28;20447;-68
2021/09/30 09:15:59;;;;;;;0.50;0.30;;;14.40;1.00;;;;;;4954744;29;20327;-66
2021/09/30 09:18:31;;;;;;;0.40;0.20;;;14.60;99.90;;;;;;4952267;29;20193;-64
2021/09/30 09:21:03;;;;;;;0.65;0.30;;;14.60;1.00;;;;;;4955216;28;20182;-64
2021/09/30 09:23:29;;;;;;;0.70;0.55;;;14.60;1.00;;;;;;4955818;28;20317;-64
2021/09/30 09:26:07;;;;;;;4.80;0.45;;;14.60;1.00;;;;;;4955343;29;20622;-67
2021/09/30 09:28:33;;;;;;;2.58;0.30;;;14.50;99.90;;;;;;4955211;28;20340;-66
2021/09/30 09:30:59;;;;;;;0.40;0.30;;;14.50;99.90;;;;;;4955568;28;20303;-63
2021/09/30 09:33:31;;;;;;;0.50;0.30;;;14.50;99.90;;;;;;4954072;29;20302;-67
2021/09/30 09:36:09;;;;;;;2.25;0.80;;;14.60;1.00;;;;;;4955273;28;20432;-62
2021/09/30 09:38:44;;;;;;;1.05;0.77;;;14.80;1.00;;;;;;4954904;28;20187;-66
2021/09/30 09:41:14;;;;;;;0.40;0.20;;;15.00;99.90;;;;;;4955383;28;20196;-68
2021/09/30 09:43:43;;;;;;;1.42;0.40;;;15.30;99.90;;;;;;4957076;28;20259;-64
2021/09/30 09:46:10;;;;;;;1.48;1.20;;;15.50;1.00;;;;;;4959358;28;20184;-68
2021/09/30 09:48:36;;;;;;;0.50;0.30;;;15.70;1.00;;;;;;4959472;29;20255;-68
2021/09/30 09:51:11;;;;;;;0.50;0.32;;;15.90;99.90;;;;;;4959664;28;20204;-68
2021/09/30 09:53:38;;;;;;;0.57;0.40;;;15.80;1.00;;;;;;4959580;29;20217;-66
2021/09/30 09:56:09;;;;;;;1.58;0.47;;;15.60;99.90;;;;;;4957615;29;20183;-65
2021/09/30 09:58:43;;;;;;;0.40;0.20;;;15.30;1.00;;;;;;4958283;28;20259;-64
2021/09/30 10:01:09;;;;;;;0.40;0.20;;;15.20;99.90;;;;;;4958647;28;20259;-64
2021/09/30 10:03:35;;;;;;;0.77;0.37;;;15.40;64.40;;;;;;4958656;29;20180;-66
2021/09/30 10:06:03;;;;;;;1.40;0.70;;;15.40;1.00;;;;;;4958084;28;20177;-65
2021/09/30 10:08:29;;;;;;;1.13;0.80;;;15.30;5.60;;;;;;4957296;28;20590;-68
2021/09/30 10:10:56;;;;;;;1.25;0.30;;;15.20;1.00;;;;;;4957496;28;20438;-65
2021/09/30 10:13:24;;;;;;;1.57;0.73;;;15.50;1.00;;;;;;4958347;28;20255;-65
2021/09/30 10:15:54;;;;;;;1.17;0.73;;;15.80;1.00;;;;;;4973292;28;20437;-63
2021/09/30 10:18:25;;;;;;;0.40;0.30;;;15.70;1.00;;;;;;4976853;28;20437;-66
2021/09/30 10:20:51;;;;;;;0.50;0.40;;;15.70;53.40;;;;;;4976684;28;20604;-65
2021/09/30 10:23:23;;;;;;;0.40;0.20;;;15.50;99.90;;;;;;4976990;28;20510;-65
2021/09/30 10:25:50;;;;;;;1.30;1.10;;;15.40;1.00;;;;;;4957717;28;20627;-65
2021/09/30 10:28:17;;;;;;;0.93;0.65;;;15.30;99.90;;;;;;4957922;28;20232;-65
2021/09/30 10:30:50;;;;;;;0.40;0.20;;;15.50;1.00;;;;;;4958019;28;20204;-66
2021/09/30 10:33:42;;;;;;;0.40;0.20;;;15.80;1.00;;;;;;4957797;29;20212;-66
2021/09/30 10:36:44;;;;;;;0.50;0.38;;;15.80;99.90;;;;;;4957712;28;20288;-66
2021/09/30 10:39:26;;;;;;;0.40;0.20;;;15.60;1.00;;;;;;4957862;28;20172;-66
2021/09/30 10:41:54;;;;;;;1.10;0.80;;;15.70;99.90;;;;;;4957724;28;20427;-66
2021/09/30 10:44:26;;;;;;;0.50;0.50;;;15.90;1.00;;;;;;4957685;28;20677;-66
2021/09/30 10:46:57;;;;;;;0.50;0.38;;;15.90;1.00;;;;;;4957714;28;20424;-66
2021/09/30 10:49:42;;;;;;;0.40;0.20;;;15.90;1.00;;;;;;4957979;28;20176;-66
2021/09/30 10:52:23;;;;;;;0.40;0.20;;;16.10;99.90;;;;;;4957762;28;20235;-66
2021/09/30 10:54:55;;;;;;;0.45;0.28;;;16.30;1.00;;;;;;4955591;28;20522;-66
2021/09/30 10:57:33;;;;;;;0.50;0.30;;;16.30;17.60;;;;;;4957737;28;20180;-66
2021/09/30 10:59:59;;;;;;;0.65;0.30;;;16.20;1.00;;;;;;4957417;28;20539;-66
2021/09/30 11:02:25;;;;;;;0.50;0.20;;;16.00;1.00;;;;;;4957568;28;20238;-66
2021/09/30 11:05:06;;;;;;;1.13;0.30;;;15.90;1.00;;;;;;4957762;28;20435;-66
2021/09/30 11:07:32;;;;;;;8.02;1.35;;;16.00;1.00;;;;;;4957537;28;20748;-67
2021/09/30 11:10:22;;;;;;;0.40;0.20;;;15.70;99.90;;;;;;4957337;28;20688;-66
2021/09/30 11:13:22;;;;;;;0.60;0.40;;;15.70;1.00;;;;;;4957310;28;20231;-66
2021/09/30 11:16:02;;;;;;;0.50;0.23;;;15.80;99.90;;;;;;4957191;28;20767;-66
2021/09/30 11:18:55;;;;;;;0.57;0.40;;;15.80;99.90;;;;;;4956743;28;20428;-66
2021/09/30 11:21:33;;;;;;;1.08;0.20;;;15.70;99.90;;;;;;4957198;28;20184;-64
2021/09/30 11:24:03;;;;;;;0.50;0.30;;;15.80;99.90;;;;;;4956698;28;20176;-64
2021/09/30 11:26:32;;;;;;;0.50;0.30;;;15.70;1.00;;;;;;4955692;29;20454;-64
2021/09/30 11:29:33;;;;;;;0.40;0.20;;;15.70;16.90;;;;;;4955988;29;20192;-64
2021/09/30 11:31:59;;;;;;;1.07;0.60;;;16.00;1.00;;;;;;4936034;29;20861;-66
2021/09/30 11:34:34;;;;;;;0.67;0.50;;;16.00;1.00;;;;;;4953062;28;20440;-65
2021/09/30 11:37:42;;;;;;;0.40;0.20;;;15.90;1.00;;;;;;4956970;28;20207;-66
2021/09/30 11:40:14;;;;;;;0.40;0.20;;;16.20;1.00;;;;;;4952545;28;20196;-65
2021/09/30 11:42:58;;;;;;;0.40;0.20;;;16.00;1.00;;;;;;4956691;28;20435;-69
2021/09/30 11:45:29;;;;;;;0.40;0.20;;;16.00;1.00;;;;;;4956737;28;20435;-65
2021/09/30 11:48:04;;;;;;;1.13;0.63;;;16.00;1.00;;;;;;4955980;28;20238;-66
2021/09/30 11:50:30;;;;;;;0.50;0.20;;;16.20;1.00;;;;;;4961405;28;20432;-63
2021/09/30 11:53:03;;;;;;;0.40;0.20;;;16.50;1.00;;;;;;4966335;28;20462;-66
2021/09/30 11:55:30;;;;;;;1.17;0.33;;;16.30;1.00;;;;;;4976779;28;20911;-66
2021/09/30 11:57:59;;;;;;;0.40;0.20;;;16.20;99.90;;;;;;4960473;28;20920;-65
2021/09/30 12:00:28;;;;;;;0.40;0.20;;;15.90;1.00;;;;;;4955468;29;20199;-66
2021/09/30 12:02:58;;;;;;;0.82;0.40;;;15.80;1.00;;;;;;4956363;28;20451;-66
2021/09/30 12:05:28;;;;;;;0.40;0.20;;;16.00;99.90;;;;;;4962722;28;20230;-67
2021/09/30 12:07:54;;;;;;;0.60;0.23;;;16.10;99.90;;;;;;4959015;28;20192;-64
2021/09/30 12:10:20;;;;;;;0.40;0.10;;;16.20;99.90;;;;;;4975569;28;20446;-66
2021/09/30 12:12:46;;;;;;;2.13;0.70;;;16.10;99.90;;;;;;4975495;28;20477;-66
2021/09/30 12:15:12;;;;;;;1.90;0.40;;;16.00;99.90;;;;;;4974730;28;20271;-66
2021/09/30 12:17:38;;;;;;;0.40;0.20;;;16.10;99.90;;;;;;4975781;28;20467;-64
2021/09/30 12:20:07;;;;;;;0.50;0.20;;;16.30;99.90;;;;;;4975288;28;20505;-65
2021/09/30 12:22:45;;;;;;;1.83;0.40;;;16.40;99.90;;;;;;4967252;28;20192;-66
2021/09/30 12:25:26;;;;;;;0.40;0.20;;;16.20;99.90;;;;;;4956796;28;20799;-67
2021/09/30 12:27:55;;;;;;;2.10;0.50;;;16.20;99.90;;;;;;4956351;28;20458;-67
2021/09/30 12:30:26;;;;;;;0.40;0.20;;;16.10;99.90;;;;;;4956262;28;20431;-67
2021/09/30 12:32:56;;;;;;;4.63;0.77;;;15.90;99.90;;;;;;4955848;28;20894;-65
2021/09/30 12:35:28;;;;;;;0.40;0.20;;;15.80;99.90;;;;;;4955993;28;20432;-65
2021/09/30 12:37:59;;;;;;;0.60;0.37;;;15.90;99.90;;;;;;4955653;28;20780;-65
2021/09/30 12:40:27;;;;;;;0.40;0.20;;;16.00;99.90;;;;;;4955612;28;20515;-66
2021/09/30 12:43:00;;;;;;;1.67;0.80;;;16.00;99.90;;;;;;4955656;28;20432;-66
2021/09/30 12:45:27;;;;;;;1.63;0.57;;;16.20;99.90;;;;;;4955750;28;20455;-62
2021/09/30 12:48:16;;;;;;;0.60;0.40;;;16.20;96.90;;;;;;4955996;28;20441;-63
2021/09/30 12:50:51;;;;;;;0.40;0.20;;;16.40;95.80;;;;;;4955817;28;20896;-63
2021/09/30 12:53:19;;;;;;;0.40;0.20;;;16.60;22.00;;;;;;4955893;28;20621;-63
2021/09/30 12:55:46;;;;;;;4.77;0.90;;;16.80;1.00;;;;;;4956109;28;20432;-64
2021/09/30 12:58:38;;;;;;;0.50;0.33;;;16.80;1.30;;;;;;4974897;28;20426;-64
2021/09/30 13:01:22;;;;;;;0.40;0.20;;;16.70;1.00;;;;;;4974811;28;20458;-64
2021/09/30 13:04:09;;;;;;;0.80;0.50;;;16.70;1.00;;;;;;4937508;29;20433;-63
2021/09/30 13:06:38;;;;;;;0.70;0.30;;;16.70;1.00;;;;;;4936853;29;20476;-65
2021/09/30 13:09:04;;;;;;;0.40;0.20;;;16.70;1.00;;;;;;4936650;29;20447;-64
2021/09/30 13:11:36;;;;;;;0.40;0.20;;;17.10;1.00;;;;;;4935084;29;20533;-63
2021/09/30 13:14:22;;;;;;;0.40;0.20;;;16.70;1.00;;;;;;4936913;29;20468;-64
2021/09/30 13:17:34;;;;;;;0.40;0.20;;;16.50;1.00;;;;;;4936619;29;20439;-67
2021/09/30 13:20:07;;;;;;;0.60;0.40;;;16.30;41.30;;;;;;4934691;29;20212;-69
2021/09/30 13:22:36;;;;;;;0.80;0.20;;;16.10;57.60;;;;;;4936340;29;20894;-66
2021/09/30 13:25:06;;;;;;;0.40;0.30;;;16.10;91.60;;;;;;4954464;28;20287;-67
2021/09/30 13:27:35;;;;;;;0.40;0.20;;;16.10;99.90;;;;;;4958711;28;20250;-67
2021/09/30 13:30:06;;;;;;;0.82;0.68;;;16.10;99.90;;;;;;4973374;28;20333;-68
2021/09/30 13:32:32;;;;;;;0.40;0.10;;;16.10;52.70;;;;;;4971430;28;20215;-69
2021/09/30 13:34:58;;;;;;;0.50;0.20;;;16.00;99.90;;;;;;4954670;29;20184;-69
2021/09/30 13:37:24;;;;;;;0.40;0.20;;;16.30;24.00;;;;;;4954058;29;20438;-67
2021/09/30 13:39:50;;;;;;;0.40;0.20;;;16.30;47.20;;;;;;4955732;28;20434;-64
2021/09/30 13:42:16;;;;;;;0.50;0.30;;;16.30;46.30;;;;;;4955622;28;20466;-64
2021/09/30 13:44:41;;;;;;;0.40;0.20;;;16.20;92.70;;;;;;4955493;29;20897;-64
2021/09/30 13:47:07;;;;;;;0.40;0.20;;;16.30;99.90;;;;;;4954714;29;20474;-69
2021/09/30 13:49:33;;;;;;;0.50;0.30;;;16.40;99.90;;;;;;4955281;29;20192;-68
2021/09/30 13:51:59;;;;;;;0.60;0.27;;;16.40;99.90;;;;;;4955497;28;20216;-66
2021/09/30 13:54:24;;;;;;;0.40;0.20;;;16.40;80.50;;;;;;4954957;28;20874;-64
2021/09/30 13:56:50;;;;;;;0.40;0.20;;;16.50;91.90;;;;;;4954784;28;20629;-68
2021/09/30 13:59:16;;;;;;;0.40;0.20;;;17.00;99.90;;;;;;4954569;28;20184;-66
2021/09/30 14:01:42;;;;;;;0.40;0.20;;;17.20;23.20;;;;;;4954060;28;20223;-68
2021/09/30 14:04:07;;;;;;;0.40;0.20;;;17.50;1.00;;;;;;4953911;29;20431;-66
2021/09/30 14:06:33;;;;;;;1.53;0.47;;;17.60;1.00;;;;;;4955219;28;20181;-65
2021/09/30 14:08:58;;;;;;;0.50;0.40;;;17.90;1.00;;;;;;4954911;28;20243;-63
2021/09/30 14:11:24;;;;;;;0.50;0.20;;;17.80;1.00;;;;;;4953925;28;20267;-67
2021/09/30 14:13:53;;;;;;;0.60;0.40;;;17.90;1.00;;;;;;4972332;28;20281;-63
2021/09/30 14:16:20;;;;;;;0.40;0.20;;;17.90;1.00;;;;;;4972477;28;20569;-64
2021/09/30 14:18:45;;;;;;;0.40;0.20;;;17.80;1.00;;;;;;4973762;28;20454;-64
2021/09/30 14:21:11;;;;;;;0.40;0.20;;;18.00;1.00;;;;;;4973355;28;20438;-65
2021/09/30 14:23:37;;;;;;;0.50;0.23;;;18.60;1.00;;;;;;4974487;28;20533;-65
2021/09/30 14:26:03;;;;;;;1.07;0.97;;;18.80;1.00;;;;;;4974193;28;20195;-66
2021/09/30 14:28:29;;;;;;;0.77;0.43;;;18.80;1.00;;;;;;4973220;28;20211;-65
2021/09/30 14:30:59;;;;;;;1.03;1.03;;;18.50;1.00;;;;;;4976471;28;20656;-65
2021/09/30 14:33:26;;;;;;;0.97;0.50;;;18.20;1.00;;;;;;4977338;28;20561;-65
2021/09/30 14:35:53;;;;;;;0.40;0.20;;;18.10;1.00;;;;;;4976637;28;20446;-65
2021/09/30 14:38:19;;;;;;;1.23;0.57;;;18.00;1.00;;;;;;4977183;28;20449;-65
2021/09/30 14:40:49;;;;;;;0.40;0.20;;;17.70;1.00;;;;;;4977378;28;20469;-64
2021/09/30 14:43:29;;;;;;;0.40;0.20;;;17.50;15.70;;;;;;4977415;28;20449;-65
2021/09/30 14:45:55;;;;;;;0.60;0.30;;;17.60;34.10;;;;;;4976945;28;20902;-64
2021/09/30 14:48:21;;;;;;;4.57;2.20;;;17.60;15.60;;;;;;4976469;28;20439;-64
2021/09/30 14:50:46;;;;;;;0.40;0.17;;;17.20;45.60;;;;;;4977075;28;20435;-64
2021/09/30 14:53:12;;;;;;;0.60;0.60;;;17.30;58.20;;;;;;4959977;28;20547;-63
2021/09/30 14:55:38;;;;;;;0.50;0.30;;;17.30;76.40;;;;;;4977061;28;20183;-64
2021/09/30 14:58:06;;;;;;;1.00;0.60;;;17.30;26.00;;;;;;4976946;28;20431;-63
2021/09/30 15:00:32;;;;;;;0.40;0.20;;;17.10;99.90;;;;;;4977038;28;20478;-63
2021/09/30 15:02:57;;;;;;;3.03;0.73;;;16.80;1.00;;;;;;4976877;28;20513;-63
2021/09/30 15:05:23;;;;;;;0.40;0.20;;;16.80;1.00;;;;;;4976921;28;20188;-64
2021/09/30 15:07:49;;;;;;;0.67;0.50;;;16.60;12.20;;;;;;4976701;28;20206;-64
2021/09/30 15:10:15;;;;;;;1.90;0.50;;;16.70;67.00;;;;;;4975736;28;20192;-65
2021/09/30 15:12:40;;;;;;;0.57;0.43;;;16.90;1.00;;;;;;4976472;28;20222;-64
2021/09/30 15:15:07;;;;;;;0.40;0.20;;;17.00;24.80;;;;;;4976542;28;20461;-64
2021/09/30 15:22:35;;;;;;;0.53;0.40;;;16.80;93.90;;;;;;4976581;28;20509;-63
2021/09/30 15:25:00;;;;;;;0.50;0.40;;;16.80;98.70;;;;;;4976360;28;20804;-64
2021/09/30 15:27:26;;;;;;;0.40;0.20;;;16.80;97.50;;;;;;4976238;28;20458;-64
2021/09/30 15:29:52;;;;;;;0.40;0.20;;;16.50;91.50;;;;;;4976013;28;20196;-64
2021/09/30 15:32:18;;;;;;;0.40;0.17;;;16.50;99.90;;;;;;4975215;28;20819;-64
2021/09/30 15:34:43;;;;;;;0.50;0.23;;;16.30;99.90;;;;;;4976172;28;20433;-64
2021/09/30 15:37:09;;;;;;;0.40;0.20;;;16.30;99.90;;;;;;4976303;28;20246;-64
2021/09/30 15:39:35;;;;;;;0.40;0.20;;;16.30;99.90;;;;;;4976143;28;20187;-65
2021/09/30 15:42:01;;;;;;;0.40;0.20;;;16.30;99.90;;;;;;4975710;28;20275;-65
2021/09/30 15:44:28;;;;;;;0.40;0.17;;;16.30;99.90;;;;;;4976358;28;20476;-65